createdAt,value
2023-04-20T00:01:15.975Z,9.51
2023-04-20T00:04:25.183Z,9.43
2023-04-20T00:07:53.054Z,9.33
2023-04-20T00:11:20.940Z,9.29
2023-04-20T00:14:48.944Z,9.29
2023-04-20T00:17:18.193Z,9.26
2023-04-20T00:20:46.222Z,9.33
2023-04-20T00:24:14.390Z,9.39
2023-04-20T00:27:42.427Z,9.39
2023-04-20T00:31:10.382Z,9.32
2023-04-20T00:33:39.454Z,9.30
2023-04-20T00:37:07.330Z,9.29
2023-04-20T00:40:19.450Z,9.29
2023-04-20T00:43:28.442Z,9.29
2023-04-20T00:46:56.443Z,9.27
2023-04-20T00:50:24.440Z,9.18
2023-04-20T00:53:52.346Z,9.14
2023-04-20T00:57:02.305Z,9.11
2023-04-20T00:59:32.488Z,9.11
2023-04-20T01:02:40.859Z,9.08
2023-04-20T01:06:08.948Z,9.00
2023-04-20T01:08:38.396Z,8.93
2023-04-20T01:12:06.353Z,8.89
2023-04-20T01:15:34.156Z,8.80
2023-04-20T01:18:42.906Z,8.76
2023-04-20T01:22:10.843Z,8.71
2023-04-20T01:25:19.951Z,8.64
2023-04-20T01:28:28.827Z,8.60
2023-04-20T01:31:36.684Z,8.55
2023-04-20T01:35:05.345Z,8.51
2023-04-20T01:38:33.060Z,8.55
2023-04-20T01:41:41.656Z,8.62
2023-04-20T01:45:09.563Z,8.66
2023-04-20T01:48:37.942Z,8.68
2023-04-20T01:51:45.854Z,8.63
2023-04-20T01:55:13.835Z,8.55
2023-04-20T01:58:41.953Z,8.40
2023-04-20T02:01:15.527Z,8.29
2023-04-20T02:04:24.270Z,8.17
2023-04-20T02:07:34.194Z,8.06
2023-04-20T02:11:01.974Z,7.97
2023-04-20T02:13:51.551Z,7.97
2023-04-20T02:17:01.072Z,7.97
2023-04-20T02:19:34.646Z,7.94
2023-04-20T02:22:24.416Z,7.86
2023-04-20T02:25:33.179Z,7.71
2023-04-20T02:29:01.167Z,7.51
2023-04-20T02:32:11.173Z,7.40
2023-04-20T02:35:02.064Z,7.31
2023-04-20T02:38:30.014Z,7.28
2023-04-20T02:41:38.327Z,7.31
2023-04-20T02:44:07.749Z,7.31
2023-04-20T02:47:35.696Z,7.30
2023-04-20T02:51:03.748Z,7.29
2023-04-20T02:54:13.744Z,7.26
2023-04-20T02:57:41.981Z,7.21
2023-04-20T03:01:09.736Z,7.27
2023-04-20T03:04:44.044Z,7.27
2023-04-20T03:08:12.043Z,7.26
2023-04-20T03:10:44.036Z,7.26
2023-04-20T03:13:33.845Z,7.29
2023-04-20T03:17:01.840Z,7.30
2023-04-20T03:20:11.181Z,7.28
2023-04-20T03:22:41.692Z,7.28
2023-04-20T03:25:51.084Z,7.29
2023-04-20T03:29:21.881Z,7.30
2023-04-20T03:32:31.451Z,7.29
2023-04-20T03:35:58.260Z,7.27
2023-04-20T03:38:43.089Z,7.22
2023-04-20T03:42:11.325Z,7.18
2023-04-20T03:45:00.354Z,7.18
2023-04-20T03:48:08.891Z,7.22
2023-04-20T03:51:18.026Z,7.17
2023-04-20T03:54:09.631Z,7.16
2023-04-20T03:57:37.454Z,7.17
2023-04-20T04:00:46.555Z,7.17
2023-04-20T04:03:58.531Z,7.18
2023-04-20T04:07:26.169Z,7.20
2023-04-20T04:10:18.283Z,7.16
2023-04-20T04:13:46.167Z,7.15
2023-04-20T04:16:53.972Z,7.16
2023-04-20T04:20:21.732Z,7.17
2023-04-20T04:23:49.548Z,7.14
2023-04-20T04:27:20.867Z,7.14
2023-04-20T04:30:48.922Z,7.13
2023-04-20T04:33:56.834Z,7.14
2023-04-20T04:36:48.682Z,7.14
2023-04-20T04:39:57.444Z,7.14
2023-04-20T04:43:05.622Z,7.15
2023-04-20T04:46:33.575Z,7.16
2023-04-20T04:50:01.525Z,7.18
2023-04-20T04:53:29.347Z,7.23
2023-04-20T04:56:18.417Z,7.21
2023-04-20T04:59:08.923Z,7.25
2023-04-20T05:02:37.105Z,7.26
2023-04-20T05:05:45.654Z,7.29
2023-04-20T05:09:13.766Z,7.29
2023-04-20T05:12:42.320Z,7.32
2023-04-20T05:16:10.044Z,7.37
2023-04-20T05:19:21.915Z,7.46
2023-04-20T05:22:29.688Z,7.53
2023-04-20T05:25:25.614Z,7.62
2023-04-20T05:27:59.667Z,7.69
2023-04-20T05:30:51.943Z,7.73
2023-04-20T05:34:07.668Z,7.80
2023-04-20T05:36:36.527Z,7.84
2023-04-20T05:40:04.938Z,7.97
2023-04-20T05:42:56.093Z,8.08
2023-04-20T05:46:08.107Z,8.15
2023-04-20T05:49:25.177Z,8.20
2023-04-20T05:51:53.253Z,8.21
2023-04-20T05:55:22.839Z,8.16
2023-04-20T05:58:34.944Z,8.26
2023-04-20T06:02:02.992Z,8.39
2023-04-20T06:04:51.534Z,8.43
2023-04-20T06:08:19.139Z,8.56
2023-04-20T06:11:28.928Z,8.69
2023-04-20T06:14:17.583Z,8.83
2023-04-20T06:17:29.408Z,8.99
2023-04-20T06:20:41.790Z,9.10
2023-04-20T06:23:53.667Z,9.13
2023-04-20T06:26:57.075Z,9.27
2023-04-20T06:29:37.446Z,9.36
2023-04-20T06:32:08.647Z,9.51
2023-04-20T06:35:11.969Z,9.68
2023-04-20T06:38:21.202Z,9.85
2023-04-20T06:40:51.650Z,9.96
2023-04-20T06:43:57.244Z,10.06
2023-04-20T06:46:26.804Z,10.19
2023-04-20T06:49:39.077Z,10.35
2023-04-20T06:53:02.279Z,10.43
2023-04-20T06:56:11.108Z,10.47
2023-04-20T06:59:19.309Z,10.59
2023-04-20T07:02:27.283Z,10.78
2023-04-20T07:05:36.164Z,10.97
2023-04-20T07:08:25.017Z,11.13
2023-04-20T07:11:11.409Z,11.28
2023-04-20T07:14:20.454Z,11.44
2023-04-20T07:17:09.295Z,11.57
2023-04-20T07:20:20.064Z,11.66
2023-04-20T07:23:10.112Z,11.72
2023-04-20T07:26:01.279Z,11.84
2023-04-20T07:29:11.404Z,11.94
2023-04-20T07:32:02.346Z,12.09
2023-04-20T07:34:53.619Z,12.26
2023-04-20T07:37:37.833Z,12.39
2023-04-20T07:40:27.302Z,12.50
2023-04-20T07:43:12.449Z,12.54
2023-04-20T07:45:56.869Z,12.69
2023-04-20T07:48:30.616Z,12.86
2023-04-20T07:50:59.454Z,13.01
2023-04-20T07:53:31.785Z,13.13
2023-04-20T07:56:20.262Z,13.21
2023-04-20T07:58:54.320Z,13.34
2023-04-20T08:02:03.545Z,13.52
2023-04-20T08:04:48.874Z,13.49
2023-04-20T08:07:22.727Z,13.46
2023-04-20T08:09:54.201Z,13.55
2023-04-20T08:13:06.366Z,13.71
2023-04-20T08:15:35.148Z,13.76
2023-04-20T08:18:05.664Z,13.71
2023-04-20T08:20:36.144Z,13.80
2023-04-20T08:23:08.364Z,13.93
2023-04-20T08:26:08.212Z,13.97
2023-04-20T08:28:42.054Z,14.11
2023-04-20T08:31:46.243Z,14.18
2023-04-20T08:34:34.898Z,14.23
2023-04-20T08:37:46.930Z,14.19
2023-04-20T08:40:35.437Z,14.29
2023-04-20T08:43:24.326Z,14.36
2023-04-20T08:45:54.583Z,14.33
2023-04-20T08:49:03.015Z,14.38
2023-04-20T08:51:35.906Z,14.45
2023-04-20T08:54:25.076Z,14.72
2023-04-20T08:57:15.742Z,14.90
2023-04-20T08:59:53.183Z,14.95
2023-04-20T09:02:22.897Z,15.18
2023-04-20T09:05:12.291Z,15.38
2023-04-20T09:07:56.752Z,15.36
2023-04-20T09:10:32.389Z,15.37
2023-04-20T09:13:16.670Z,15.36
2023-04-20T09:15:48.391Z,15.49
2023-04-20T09:18:16.548Z,15.70
2023-04-20T09:20:45.132Z,15.79
2023-04-20T09:23:35.108Z,15.91
2023-04-20T09:26:25.696Z,16.04
2023-04-20T09:28:57.606Z,16.06
2023-04-20T09:31:46.405Z,16.11
2023-04-20T09:34:31.393Z,16.16
2023-04-20T09:37:20.701Z,16.13
2023-04-20T09:40:09.653Z,16.30
2023-04-20T09:42:48.144Z,16.51
2023-04-20T09:45:17.047Z,16.50
2023-04-20T09:48:06.036Z,16.47
2023-04-20T09:50:55.295Z,16.56
2023-04-20T09:54:03.302Z,16.55
2023-04-20T09:56:39.233Z,16.77
2023-04-20T09:59:15.390Z,16.95
2023-04-20T10:01:44.438Z,17.12
2023-04-20T10:04:16.528Z,17.32
2023-04-20T10:07:08.342Z,17.44
2023-04-20T10:09:38.298Z,17.58
2023-04-20T10:12:07.538Z,17.47
2023-04-20T10:14:38.364Z,17.51
2023-04-20T10:17:25.764Z,17.53
2023-04-20T10:20:09.792Z,17.73
2023-04-20T10:22:42.043Z,17.46
2023-04-20T10:25:50.485Z,17.58
2023-04-20T10:28:22.895Z,17.43
2023-04-20T10:30:56.978Z,17.54
2023-04-20T10:33:29.785Z,17.71
2023-04-20T10:36:17.895Z,18.15
2023-04-20T10:39:26.767Z,18.61
2023-04-20T10:41:58.758Z,18.64
2023-04-20T10:44:38.950Z,18.50
2023-04-20T10:47:07.530Z,18.34
2023-04-20T10:49:37.048Z,18.45
2023-04-20T10:53:00.716Z,18.58
2023-04-20T10:55:56.677Z,18.90
2023-04-20T10:58:26.083Z,18.67
2023-04-20T11:01:29.924Z,18.21
2023-04-20T11:04:40.084Z,18.24
2023-04-20T11:07:18.228Z,18.66
2023-04-20T11:09:46.844Z,18.98
2023-04-20T11:12:39.210Z,18.90
2023-04-20T11:15:23.606Z,19.12
2023-04-20T11:18:12.282Z,19.37
2023-04-20T11:20:48.528Z,19.06
2023-04-20T11:23:21.127Z,18.55
2023-04-20T11:26:10.375Z,18.49
2023-04-20T11:28:40.985Z,18.34
2023-04-20T11:31:13.430Z,18.33
2023-04-20T11:34:04.820Z,18.23
2023-04-20T11:36:59.507Z,18.30
2023-04-20T11:40:07.415Z,18.25
2023-04-20T11:42:53.012Z,18.05
2023-04-20T11:45:23.705Z,18.04
2023-04-20T11:47:54.476Z,17.94
2023-04-20T11:50:44.649Z,17.97
2023-04-20T11:53:22.767Z,18.04
2023-04-20T11:55:52.874Z,18.31
2023-04-20T11:59:01.218Z,18.86
2023-04-20T12:01:30.302Z,18.86
2023-04-20T12:04:02.597Z,18.77
2023-04-20T12:06:31.625Z,18.71
2023-04-20T12:09:01.106Z,18.55
2023-04-20T12:11:30.417Z,18.43
2023-04-20T12:14:03.349Z,18.47
2023-04-20T12:16:32.192Z,18.35
2023-04-20T12:19:20.621Z,18.32
2023-04-20T12:22:29.139Z,18.29
2023-04-20T12:24:58.452Z,18.23
2023-04-20T12:27:35.223Z,18.12
2023-04-20T12:30:24.224Z,18.02
2023-04-20T12:33:02.753Z,17.95
2023-04-20T12:35:31.776Z,18.07
2023-04-20T12:38:16.479Z,18.15
2023-04-20T12:40:52.653Z,18.28
2023-04-20T12:43:41.121Z,18.30
2023-04-20T12:46:11.825Z,18.36
2023-04-20T12:49:01.087Z,18.46
2023-04-20T12:51:53.485Z,18.84
2023-04-20T12:54:29.343Z,19.52
2023-04-20T12:57:37.173Z,20.56
2023-04-20T13:00:06.207Z,21.02
2023-04-20T13:02:42.088Z,21.12
2023-04-20T13:05:13.581Z,20.73
2023-04-20T13:08:04.139Z,20.32
2023-04-20T13:10:53.521Z,20.33
2023-04-20T13:13:43.165Z,20.40
2023-04-20T13:16:23.108Z,21.08
2023-04-20T13:18:54.170Z,21.37
2023-04-20T13:21:24.135Z,21.82
2023-04-20T13:24:00.700Z,22.23
2023-04-20T13:26:38.506Z,22.50
2023-04-20T13:29:15.051Z,22.73
2023-04-20T13:32:03.959Z,23.04
2023-04-20T13:34:37.160Z,22.93
2023-04-20T13:37:07.457Z,23.18
2023-04-20T13:39:37.724Z,23.75
2023-04-20T13:42:06.436Z,23.46
2023-04-20T13:44:34.501Z,22.63
2023-04-20T13:47:04.578Z,21.81
2023-04-20T13:49:39.962Z,21.75
2023-04-20T13:52:23.270Z,22.02
2023-04-20T13:54:52.956Z,22.15
2023-04-20T13:57:22.539Z,22.72
2023-04-20T13:59:51.894Z,23.17
2023-04-20T14:02:20.801Z,23.60
2023-04-20T14:05:09.073Z,23.89
2023-04-20T14:07:38.037Z,23.62
2023-04-20T14:10:08.490Z,23.55
2023-04-20T14:12:40.748Z,24.23
2023-04-20T14:15:13.073Z,24.50
2023-04-20T14:17:45.374Z,24.21
2023-04-20T14:20:18.528Z,24.28
2023-04-20T14:23:15.198Z,24.80
2023-04-20T14:25:44.149Z,24.95
2023-04-20T14:28:15.602Z,24.77
2023-04-20T14:30:44.833Z,24.68
2023-04-20T14:33:17.215Z,25.01
2023-04-20T14:35:49.577Z,24.98
2023-04-20T14:38:19.309Z,25.03
2023-04-20T14:40:49.745Z,25.31
2023-04-20T14:43:18.072Z,25.20
2023-04-20T14:45:47.693Z,25.48
2023-04-20T14:48:17.354Z,26.22
2023-04-20T14:50:45.518Z,26.51
2023-04-20T14:53:14.935Z,26.08
2023-04-20T14:55:44.195Z,25.96
2023-04-20T14:58:12.072Z,26.46
2023-04-20T15:00:44.289Z,26.08
2023-04-20T15:03:32.557Z,25.98
2023-04-20T15:06:06.901Z,26.71
2023-04-20T15:08:35.785Z,26.43
2023-04-20T15:11:06.418Z,26.38
2023-04-20T15:13:35.547Z,26.73
2023-04-20T15:16:04.038Z,25.94
2023-04-20T15:18:33.241Z,26.55
2023-04-20T15:21:02.897Z,25.85
2023-04-20T15:23:35.752Z,25.86
2023-04-20T15:26:06.139Z,26.32
2023-04-20T15:28:36.089Z,26.57
2023-04-20T15:31:08.485Z,26.59
2023-04-20T15:33:58.483Z,26.71
2023-04-20T15:36:29.328Z,26.49
2023-04-20T15:38:59.537Z,26.56
2023-04-20T15:41:29.358Z,26.99
2023-04-20T15:43:58.183Z,26.91
2023-04-20T15:46:26.939Z,26.68
2023-04-20T15:49:22.402Z,26.53
2023-04-20T15:51:51.988Z,26.08
2023-04-20T15:54:20.945Z,26.03
2023-04-20T15:57:05.910Z,25.79
2023-04-20T15:59:36.334Z,25.72
2023-04-20T16:02:20.450Z,26.08
2023-04-20T16:04:49.629Z,25.47
2023-04-20T16:07:17.918Z,25.78
2023-04-20T16:09:48.058Z,25.62
2023-04-20T16:12:17.627Z,25.84
2023-04-20T16:15:15.056Z,26.09
2023-04-20T16:17:46.094Z,26.15
2023-04-20T16:20:17.044Z,26.17
2023-04-20T16:22:47.130Z,25.98
2023-04-20T16:25:16.071Z,26.15
2023-04-20T16:27:45.268Z,25.94
2023-04-20T16:30:14.328Z,26.04
2023-04-20T16:32:43.780Z,25.68
2023-04-20T16:35:30.050Z,25.43
2023-04-20T16:38:00.122Z,25.09
2023-04-20T16:40:32.989Z,25.15
2023-04-20T16:43:01.630Z,24.76
2023-04-20T16:45:30.890Z,24.76
2023-04-20T16:48:01.388Z,23.90
2023-04-20T16:50:50.318Z,23.82
2023-04-20T16:53:20.054Z,23.23
2023-04-20T16:56:11.469Z,22.51
2023-04-20T16:58:39.974Z,22.02
2023-04-20T17:01:28.786Z,21.47
2023-04-20T17:04:39.176Z,20.67
2023-04-20T17:07:14.817Z,20.09
2023-04-20T17:10:23.328Z,19.56
2023-04-20T17:13:09.351Z,19.02
2023-04-20T17:16:12.779Z,18.61
2023-04-20T17:19:00.754Z,18.20
2023-04-20T17:21:32.979Z,17.86
2023-04-20T17:24:18.463Z,17.64
2023-04-20T17:26:46.667Z,17.48
2023-04-20T17:29:17.704Z,17.23
2023-04-20T17:32:06.157Z,16.98
2023-04-20T17:34:50.699Z,16.74
2023-04-20T17:37:22.571Z,16.55
2023-04-20T17:40:30.654Z,16.38
2023-04-20T17:43:22.863Z,16.17
2023-04-20T17:45:54.842Z,15.99
2023-04-20T17:48:43.536Z,15.78
2023-04-20T17:51:13.733Z,15.66
2023-04-20T17:54:26.380Z,15.43
2023-04-20T17:57:15.347Z,15.21
2023-04-20T17:59:45.316Z,15.18
2023-04-20T18:02:40.717Z,15.13
2023-04-20T18:05:29.525Z,15.11
2023-04-20T18:08:02.122Z,15.02
2023-04-20T18:10:33.492Z,14.89
2023-04-20T18:13:10.884Z,14.83
2023-04-20T18:15:55.160Z,14.74
2023-04-20T18:18:43.275Z,14.66
2023-04-20T18:21:41.424Z,14.55
2023-04-20T18:24:32.328Z,14.47
2023-04-20T18:27:25.786Z,14.37
2023-04-20T18:30:02.425Z,14.29
2023-04-20T18:32:32.006Z,14.21
2023-04-20T18:35:04.310Z,14.13
2023-04-20T18:37:57.864Z,14.06
2023-04-20T18:40:46.147Z,13.99
2023-04-20T18:43:16.681Z,13.95
2023-04-20T18:45:50.424Z,13.91
2023-04-20T18:48:39.414Z,13.92
2023-04-20T18:51:09.101Z,13.91
2023-04-20T18:53:53.614Z,13.92
2023-04-20T18:57:01.680Z,13.92
2023-04-20T18:59:32.291Z,13.92
2023-04-20T19:02:20.553Z,13.92
2023-04-20T19:05:14.562Z,13.88
2023-04-20T19:07:51.710Z,13.86
2023-04-20T19:10:41.715Z,13.83
2023-04-20T19:13:46.358Z,13.80
2023-04-20T19:16:18.745Z,13.77
2023-04-20T19:19:04.627Z,13.74
2023-04-20T19:21:35.085Z,13.74
2023-04-20T19:24:04.425Z,13.74
2023-04-20T19:26:54.021Z,13.65
2023-04-20T19:30:02.126Z,13.63
2023-04-20T19:32:31.238Z,13.59
2023-04-20T19:35:20.586Z,13.57
2023-04-20T19:37:52.554Z,13.58
2023-04-20T19:41:20.531Z,13.58
2023-04-20T19:44:11.938Z,13.53
2023-04-20T19:47:04.196Z,13.53
2023-04-20T19:49:33.582Z,13.53
2023-04-20T19:52:29.775Z,13.54
2023-04-20T19:55:38.746Z,13.51
2023-04-20T19:58:42.539Z,13.46
2023-04-20T20:01:30.842Z,13.41
2023-04-20T20:04:39.225Z,13.35
2023-04-20T20:07:47.928Z,13.31
2023-04-20T20:10:36.974Z,13.25
2023-04-20T20:13:27.548Z,13.20
2023-04-20T20:16:16.493Z,13.16
2023-04-20T20:18:44.687Z,13.11
2023-04-20T20:21:52.746Z,13.02
2023-04-20T20:24:24.929Z,12.95
2023-04-20T20:26:57.787Z,12.86
2023-04-20T20:29:35.309Z,12.78
2023-04-20T20:32:06.324Z,12.68
2023-04-20T20:34:38.513Z,12.61
2023-04-20T20:37:26.993Z,12.55
2023-04-20T20:40:20.865Z,12.47
2023-04-20T20:42:52.700Z,12.44
2023-04-20T20:45:39.336Z,12.35
2023-04-20T20:48:09.756Z,12.26
2023-04-20T20:51:10.036Z,12.17
2023-04-20T20:54:20.072Z,12.13
2023-04-20T20:57:12.295Z,12.06
2023-04-20T21:00:00.442Z,12.02
2023-04-20T21:03:10.635Z,11.95
2023-04-20T21:05:59.382Z,11.89
2023-04-20T21:08:49.345Z,11.81
2023-04-20T21:11:47.298Z,11.70
2023-04-20T21:14:40.402Z,11.59
2023-04-20T21:17:48.658Z,11.54
2023-04-20T21:20:58.451Z,11.43
2023-04-20T21:24:10.214Z,11.33
2023-04-20T21:27:38.300Z,11.23
2023-04-20T21:31:06.500Z,11.12
2023-04-20T21:33:37.093Z,11.09
2023-04-20T21:37:05.458Z,11.01
2023-04-20T21:39:36.639Z,11.00
2023-04-20T21:42:40.452Z,10.89
2023-04-20T21:45:33.117Z,10.81
2023-04-20T21:48:41.308Z,10.74
2023-04-20T21:51:33.408Z,10.69
2023-04-20T21:54:04.487Z,10.61
2023-04-20T21:56:54.241Z,10.53
2023-04-20T22:00:02.679Z,10.40
2023-04-20T22:02:44.387Z,10.32
2023-04-20T22:05:42.546Z,10.22
2023-04-20T22:08:52.101Z,10.12
2023-04-20T22:12:01.352Z,10.04
2023-04-20T22:15:06.853Z,9.96
2023-04-20T22:18:19.391Z,9.84
2023-04-20T22:21:28.628Z,9.75
2023-04-20T22:24:19.692Z,9.72
2023-04-20T22:27:27.819Z,9.65
2023-04-20T22:30:31.907Z,9.60
2023-04-20T22:33:55.279Z,9.52
2023-04-20T22:37:03.752Z,9.48
2023-04-20T22:39:56.545Z,9.44
2023-04-20T22:43:05.148Z,9.43
2023-04-20T22:46:13.131Z,9.38
2023-04-20T22:48:42.235Z,9.38
2023-04-20T22:51:54.207Z,9.35
2023-04-20T22:54:22.315Z,9.34
2023-04-20T22:57:30.347Z,9.35
2023-04-20T23:00:26.690Z,9.37
2023-04-20T23:03:36.479Z,9.37
2023-04-20T23:06:33.296Z,9.35
2023-04-20T23:09:22.435Z,9.35
2023-04-20T23:12:34.486Z,9.29
2023-04-20T23:15:22.884Z,9.21
2023-04-20T23:18:46.737Z,9.15
2023-04-20T23:21:35.743Z,9.12
2023-04-20T23:24:47.774Z,9.07
2023-04-20T23:27:36.755Z,9.04
2023-04-20T23:30:09.477Z,9.01
2023-04-20T23:33:37.722Z,8.97
2023-04-20T23:36:37.262Z,8.94
2023-04-20T23:39:23.389Z,8.90
2023-04-20T23:42:00.005Z,8.86
2023-04-20T23:44:56.425Z,8.83
2023-04-20T23:47:50.233Z,8.79
2023-04-20T23:50:46.794Z,8.75
2023-04-20T23:53:16.872Z,8.76
2023-04-20T23:56:40.572Z,8.70
2023-04-20T23:59:48.384Z,8.66
